East Braintree, Massachusetts
Current Conditions -  °F | °C
As of 1:53 PM on Friday 28 Nov 2014 (Local Time) from KOWD Reporting Station
Clear Clear  
Wind Chill: 27°   Ceiling: Unl
Heat Index: 36°   Visibility: 10mi
Dew Point: 19°   Wind: 15mph
Humidity: 50%   Direction: 300°WNW
Pressure: 30.06"   Gusts: 21mph
Location:  42.2036°N, 71.0017°W
Report Text: KOWD 281853Z 30013G18KT 10SM CLR 02/M07 A3006 RMK AO2 SLP179 T00221072
Loading
Personal Weather Stations






























Interactive Weather Map New forecast layout! Learn more

10-Day Weather Forecast

Advertisements
Track Severe Weather on mobile